sensor_id;sensor_type;location;lat;lon;timestamp;P1;durP1;ratioP1;P2;durP2;ratioP2
17141;SDS011;32805;53.556;9.944;2022-08-25T00:01:36;4.60;;;3.95;;
17141;SDS011;32805;53.556;9.944;2022-08-25T00:04:08;5.35;;;3.85;;
17141;SDS011;32805;53.556;9.944;2022-08-25T00:06:39;7.07;;;3.67;;
17141;SDS011;32805;53.556;9.944;2022-08-25T00:09:08;6.22;;;4.65;;
17141;SDS011;32805;53.556;9.944;2022-08-25T00:11:39;4.95;;;3.75;;
17141;SDS011;32805;53.556;9.944;2022-08-25T00:14:09;4.63;;;3.55;;
17141;SDS011;32805;53.556;9.944;2022-08-25T00:16:39;5.13;;;4.00;;
17141;SDS011;32805;53.556;9.944;2022-08-25T00:19:08;5.90;;;3.85;;
17141;SDS011;32805;53.556;9.944;2022-08-25T00:21:39;6.45;;;4.32;;
17141;SDS011;32805;53.556;9.944;2022-08-25T00:24:08;4.30;;;3.90;;
17141;SDS011;32805;53.556;9.944;2022-08-25T00:26:39;4.28;;;3.88;;
17141;SDS011;32805;53.556;9.944;2022-08-25T00:29:08;5.15;;;3.95;;
17141;SDS011;32805;53.556;9.944;2022-08-25T00:31:38;6.63;;;3.88;;
17141;SDS011;32805;53.556;9.944;2022-08-25T00:34:06;5.22;;;4.00;;
17141;SDS011;32805;53.556;9.944;2022-08-25T00:36:36;5.85;;;4.18;;
17141;SDS011;32805;53.556;9.944;2022-08-25T00:39:05;6.15;;;4.45;;
17141;SDS011;32805;53.556;9.944;2022-08-25T00:41:35;4.82;;;3.88;;
17141;SDS011;32805;53.556;9.944;2022-08-25T00:44:05;5.70;;;4.05;;
17141;SDS011;32805;53.556;9.944;2022-08-25T00:46:36;5.05;;;4.63;;
17141;SDS011;32805;53.556;9.944;2022-08-25T00:49:06;6.47;;;4.18;;
17141;SDS011;32805;53.556;9.944;2022-08-25T00:51:51;5.22;;;3.70;;
17141;SDS011;32805;53.556;9.944;2022-08-25T00:54:23;5.03;;;4.05;;
17141;SDS011;32805;53.556;9.944;2022-08-25T00:56:54;5.80;;;4.15;;
17141;SDS011;32805;53.556;9.944;2022-08-25T00:59:25;5.55;;;4.30;;
17141;SDS011;32805;53.556;9.944;2022-08-25T01:01:54;5.47;;;4.22;;
17141;SDS011;32805;53.556;9.944;2022-08-25T01:04:24;5.82;;;3.97;;
17141;SDS011;32805;53.556;9.944;2022-08-25T01:06:52;4.43;;;3.92;;
17141;SDS011;32805;53.556;9.944;2022-08-25T01:09:21;8.15;;;4.30;;
17141;SDS011;32805;53.556;9.944;2022-08-25T01:11:49;6.32;;;4.40;;
17141;SDS011;32805;53.556;9.944;2022-08-25T01:14:17;6.35;;;4.45;;
17141;SDS011;32805;53.556;9.944;2022-08-25T01:16:49;4.78;;;4.28;;
17141;SDS011;32805;53.556;9.944;2022-08-25T01:19:19;5.20;;;4.50;;
17141;SDS011;32805;53.556;9.944;2022-08-25T01:21:49;6.47;;;4.35;;
17141;SDS011;32805;53.556;9.944;2022-08-25T01:24:20;9.25;;;5.25;;
17141;SDS011;32805;53.556;9.944;2022-08-25T01:26:51;5.25;;;4.25;;
17141;SDS011;32805;53.556;9.944;2022-08-25T01:29:19;6.65;;;5.15;;
17141;SDS011;32805;53.556;9.944;2022-08-25T01:31:53;5.85;;;4.60;;
17141;SDS011;32805;53.556;9.944;2022-08-25T01:34:23;8.07;;;4.65;;
17141;SDS011;32805;53.556;9.944;2022-08-25T01:36:55;6.28;;;4.57;;
17141;SDS011;32805;53.556;9.944;2022-08-25T01:39:24;4.38;;;4.00;;
17141;SDS011;32805;53.556;9.944;2022-08-25T01:41:58;4.63;;;3.92;;
17141;SDS011;32805;53.556;9.944;2022-08-25T01:44:37;5.25;;;4.20;;
17141;SDS011;32805;53.556;9.944;2022-08-25T01:47:07;5.47;;;4.22;;
17141;SDS011;32805;53.556;9.944;2022-08-25T01:49:36;7.43;;;4.68;;
17141;SDS011;32805;53.556;9.944;2022-08-25T01:52:06;7.25;;;4.63;;
17141;SDS011;32805;53.556;9.944;2022-08-25T01:54:38;4.55;;;4.13;;
17141;SDS011;32805;53.556;9.944;2022-08-25T01:57:06;6.47;;;4.30;;
17141;SDS011;32805;53.556;9.944;2022-08-25T01:59:34;5.68;;;4.30;;
17141;SDS011;32805;53.556;9.944;2022-08-25T02:02:02;6.32;;;4.53;;
17141;SDS011;32805;53.556;9.944;2022-08-25T02:04:30;6.75;;;4.45;;
17141;SDS011;32805;53.556;9.944;2022-08-25T02:06:59;6.90;;;4.78;;
17141;SDS011;32805;53.556;9.944;2022-08-25T02:09:30;5.75;;;4.80;;
17141;SDS011;32805;53.556;9.944;2022-08-25T02:11:58;6.03;;;4.50;;
17141;SDS011;32805;53.556;9.944;2022-08-25T02:14:26;5.68;;;4.35;;
17141;SDS011;32805;53.556;9.944;2022-08-25T02:16:54;4.80;;;4.22;;
17141;SDS011;32805;53.556;9.944;2022-08-25T02:19:23;6.00;;;4.68;;
17141;SDS011;32805;53.556;9.944;2022-08-25T02:21:51;5.43;;;4.28;;
17141;SDS011;32805;53.556;9.944;2022-08-25T02:24:19;6.35;;;4.55;;
17141;SDS011;32805;53.556;9.944;2022-08-25T02:26:48;6.80;;;5.22;;
17141;SDS011;32805;53.556;9.944;2022-08-25T02:29:16;6.20;;;4.80;;
17141;SDS011;32805;53.556;9.944;2022-08-25T02:31:44;6.90;;;4.50;;
17141;SDS011;32805;53.556;9.944;2022-08-25T02:34:12;7.70;;;4.90;;
17141;SDS011;32805;53.556;9.944;2022-08-25T02:36:41;5.85;;;4.57;;
17141;SDS011;32805;53.556;9.944;2022-08-25T02:39:09;5.82;;;4.95;;
17141;SDS011;32805;53.556;9.944;2022-08-25T02:41:38;9.32;;;5.22;;
17141;SDS011;32805;53.556;9.944;2022-08-25T02:44:08;6.72;;;4.70;;
17141;SDS011;32805;53.556;9.944;2022-08-25T02:46:36;6.05;;;5.35;;
17141;SDS011;32805;53.556;9.944;2022-08-25T02:49:04;5.88;;;4.60;;
17141;SDS011;32805;53.556;9.944;2022-08-25T02:51:33;6.80;;;4.80;;
17141;SDS011;32805;53.556;9.944;2022-08-25T02:54:02;6.93;;;4.80;;
17141;SDS011;32805;53.556;9.944;2022-08-25T02:56:31;5.60;;;4.93;;
17141;SDS011;32805;53.556;9.944;2022-08-25T02:58:59;6.10;;;4.90;;
17141;SDS011;32805;53.556;9.944;2022-08-25T03:01:29;7.32;;;5.10;;
17141;SDS011;32805;53.556;9.944;2022-08-25T03:03:59;8.55;;;4.95;;
17141;SDS011;32805;53.556;9.944;2022-08-25T03:06:28;5.88;;;4.90;;
17141;SDS011;32805;53.556;9.944;2022-08-25T03:08:56;6.85;;;4.75;;
17141;SDS011;32805;53.556;9.944;2022-08-25T03:11:24;6.10;;;4.75;;
17141;SDS011;32805;53.556;9.944;2022-08-25T03:13:52;5.32;;;4.38;;
17141;SDS011;32805;53.556;9.944;2022-08-25T03:16:21;6.97;;;5.00;;
17141;SDS011;32805;53.556;9.944;2022-08-25T03:18:54;7.78;;;4.65;;
17141;SDS011;32805;53.556;9.944;2022-08-25T03:21:24;7.05;;;5.10;;
17141;SDS011;32805;53.556;9.944;2022-08-25T03:23:54;8.93;;;5.00;;
17141;SDS011;32805;53.556;9.944;2022-08-25T03:26:22;5.25;;;4.80;;
17141;SDS011;32805;53.556;9.944;2022-08-25T03:29:07;7.15;;;5.22;;
17141;SDS011;32805;53.556;9.944;2022-08-25T03:31:36;5.85;;;5.10;;
17141;SDS011;32805;53.556;9.944;2022-08-25T03:34:05;6.25;;;5.38;;
17141;SDS011;32805;53.556;9.944;2022-08-25T03:36:34;6.18;;;5.10;;
17141;SDS011;32805;53.556;9.944;2022-08-25T03:39:02;6.75;;;5.38;;
17141;SDS011;32805;53.556;9.944;2022-08-25T03:41:31;7.00;;;4.90;;
17141;SDS011;32805;53.556;9.944;2022-08-25T03:43:59;6.40;;;4.85;;
17141;SDS011;32805;53.556;9.944;2022-08-25T03:46:29;6.13;;;5.05;;
17141;SDS011;32805;53.556;9.944;2022-08-25T03:48:59;8.45;;;5.30;;
17141;SDS011;32805;53.556;9.944;2022-08-25T03:51:30;6.38;;;5.22;;
17141;SDS011;32805;53.556;9.944;2022-08-25T03:54:00;7.82;;;5.45;;
17141;SDS011;32805;53.556;9.944;2022-08-25T03:56:29;8.63;;;5.00;;
17141;SDS011;32805;53.556;9.944;2022-08-25T03:58:57;7.15;;;5.43;;
17141;SDS011;32805;53.556;9.944;2022-08-25T04:01:25;7.63;;;5.45;;
17141;SDS011;32805;53.556;9.944;2022-08-25T04:03:53;8.10;;;5.60;;
17141;SDS011;32805;53.556;9.944;2022-08-25T04:06:21;9.88;;;5.75;;
17141;SDS011;32805;53.556;9.944;2022-08-25T04:08:50;7.90;;;5.45;;
17141;SDS011;32805;53.556;9.944;2022-08-25T04:11:19;7.70;;;5.63;;
17141;SDS011;32805;53.556;9.944;2022-08-25T04:13:49;9.10;;;5.68;;
17141;SDS011;32805;53.556;9.944;2022-08-25T04:16:18;7.97;;;5.57;;
17141;SDS011;32805;53.556;9.944;2022-08-25T04:18:48;7.07;;;5.20;;
17141;SDS011;32805;53.556;9.944;2022-08-25T04:21:18;7.88;;;5.88;;
17141;SDS011;32805;53.556;9.944;2022-08-25T04:23:46;7.20;;;5.22;;
17141;SDS011;32805;53.556;9.944;2022-08-25T04:26:18;7.13;;;5.68;;
17141;SDS011;32805;53.556;9.944;2022-08-25T04:28:48;6.68;;;5.97;;
17141;SDS011;32805;53.556;9.944;2022-08-25T04:31:16;7.10;;;5.65;;
17141;SDS011;32805;53.556;9.944;2022-08-25T04:33:46;6.93;;;5.82;;
17141;SDS011;32805;53.556;9.944;2022-08-25T04:36:14;9.48;;;5.47;;
17141;SDS011;32805;53.556;9.944;2022-08-25T04:38:44;7.47;;;5.47;;
17141;SDS011;32805;53.556;9.944;2022-08-25T04:41:14;5.88;;;5.30;;
17141;SDS011;32805;53.556;9.944;2022-08-25T04:43:44;7.72;;;6.30;;
17141;SDS011;32805;53.556;9.944;2022-08-25T04:46:13;6.72;;;5.72;;
17141;SDS011;32805;53.556;9.944;2022-08-25T04:48:46;6.43;;;5.30;;
17141;SDS011;32805;53.556;9.944;2022-08-25T04:51:15;6.93;;;5.00;;
17141;SDS011;32805;53.556;9.944;2022-08-25T04:53:45;5.90;;;5.30;;
17141;SDS011;32805;53.556;9.944;2022-08-25T04:56:14;6.13;;;5.05;;
17141;SDS011;32805;53.556;9.944;2022-08-25T04:58:44;7.80;;;5.90;;
17141;SDS011;32805;53.556;9.944;2022-08-25T05:01:13;6.55;;;5.35;;
17141;SDS011;32805;53.556;9.944;2022-08-25T05:03:43;8.77;;;5.55;;
17141;SDS011;32805;53.556;9.944;2022-08-25T05:06:12;7.03;;;5.18;;
17141;SDS011;32805;53.556;9.944;2022-08-25T05:08:41;7.22;;;5.65;;
17141;SDS011;32805;53.556;9.944;2022-08-25T05:11:12;6.43;;;5.70;;
17141;SDS011;32805;53.556;9.944;2022-08-25T05:13:42;7.82;;;5.90;;
17141;SDS011;32805;53.556;9.944;2022-08-25T05:16:17;8.05;;;5.95;;
17141;SDS011;32805;53.556;9.944;2022-08-25T05:18:46;7.03;;;6.30;;
17141;SDS011;32805;53.556;9.944;2022-08-25T05:21:14;8.00;;;5.65;;
17141;SDS011;32805;53.556;9.944;2022-08-25T05:23:44;6.10;;;5.50;;
17141;SDS011;32805;53.556;9.944;2022-08-25T05:26:13;7.72;;;4.97;;
17141;SDS011;32805;53.556;9.944;2022-08-25T05:28:47;6.15;;;5.10;;
17141;SDS011;32805;53.556;9.944;2022-08-25T05:31:16;9.10;;;5.80;;
17141;SDS011;32805;53.556;9.944;2022-08-25T05:33:45;7.50;;;5.72;;
17141;SDS011;32805;53.556;9.944;2022-08-25T05:36:13;8.40;;;5.78;;
17141;SDS011;32805;53.556;9.944;2022-08-25T05:38:42;7.13;;;5.63;;
17141;SDS011;32805;53.556;9.944;2022-08-25T05:41:12;9.73;;;5.88;;
17141;SDS011;32805;53.556;9.944;2022-08-25T05:43:42;7.38;;;5.60;;
17141;SDS011;32805;53.556;9.944;2022-08-25T05:46:13;6.97;;;5.80;;
17141;SDS011;32805;53.556;9.944;2022-08-25T05:48:41;6.78;;;5.45;;
17141;SDS011;32805;53.556;9.944;2022-08-25T05:51:09;7.63;;;5.72;;
17141;SDS011;32805;53.556;9.944;2022-08-25T05:53:39;5.57;;;4.95;;
17141;SDS011;32805;53.556;9.944;2022-08-25T05:56:08;7.95;;;5.72;;
17141;SDS011;32805;53.556;9.944;2022-08-25T05:58:36;8.90;;;5.40;;
17141;SDS011;32805;53.556;9.944;2022-08-25T06:01:04;9.02;;;6.03;;
17141;SDS011;32805;53.556;9.944;2022-08-25T06:03:48;10.98;;;6.22;;
17141;SDS011;32805;53.556;9.944;2022-08-25T06:06:18;8.93;;;6.13;;
17141;SDS011;32805;53.556;9.944;2022-08-25T06:08:47;9.45;;;7.00;;
17141;SDS011;32805;53.556;9.944;2022-08-25T06:11:15;7.35;;;6.18;;
17141;SDS011;32805;53.556;9.944;2022-08-25T06:13:43;8.02;;;6.10;;
17141;SDS011;32805;53.556;9.944;2022-08-25T06:16:11;12.27;;;8.00;;
17141;SDS011;32805;53.556;9.944;2022-08-25T06:18:39;9.98;;;8.02;;
17141;SDS011;32805;53.556;9.944;2022-08-25T06:21:09;9.15;;;7.13;;
17141;SDS011;32805;53.556;9.944;2022-08-25T06:23:38;11.57;;;8.75;;
17141;SDS011;32805;53.556;9.944;2022-08-25T06:26:09;12.63;;;9.77;;
17141;SDS011;32805;53.556;9.944;2022-08-25T06:28:46;9.23;;;7.93;;
17141;SDS011;32805;53.556;9.944;2022-08-25T06:31:13;13.60;;;9.90;;
17141;SDS011;32805;53.556;9.944;2022-08-25T06:33:42;8.55;;;7.63;;
17141;SDS011;32805;53.556;9.944;2022-08-25T06:36:11;9.63;;;8.25;;
17141;SDS011;32805;53.556;9.944;2022-08-25T06:38:39;9.48;;;7.82;;
17141;SDS011;32805;53.556;9.944;2022-08-25T06:41:07;10.40;;;7.80;;
17141;SDS011;32805;53.556;9.944;2022-08-25T06:43:36;10.57;;;9.32;;
17141;SDS011;32805;53.556;9.944;2022-08-25T06:46:10;14.05;;;10.35;;
17141;SDS011;32805;53.556;9.944;2022-08-25T06:48:40;10.30;;;8.85;;
17141;SDS011;32805;53.556;9.944;2022-08-25T06:51:09;13.27;;;9.32;;
17141;SDS011;32805;53.556;9.944;2022-08-25T06:53:40;11.35;;;9.23;;
17141;SDS011;32805;53.556;9.944;2022-08-25T06:56:08;11.60;;;8.90;;
17141;SDS011;32805;53.556;9.944;2022-08-25T06:58:37;11.20;;;8.70;;
17141;SDS011;32805;53.556;9.944;2022-08-25T07:01:06;14.48;;;9.55;;
17141;SDS011;32805;53.556;9.944;2022-08-25T07:03:44;13.55;;;10.05;;
17141;SDS011;32805;53.556;9.944;2022-08-25T07:06:15;12.60;;;10.55;;
17141;SDS011;32805;53.556;9.944;2022-08-25T07:08:44;14.43;;;9.20;;
17141;SDS011;32805;53.556;9.944;2022-08-25T07:11:12;12.25;;;8.60;;
17141;SDS011;32805;53.556;9.944;2022-08-25T07:13:43;12.35;;;10.23;;
17141;SDS011;32805;53.556;9.944;2022-08-25T07:16:12;10.38;;;9.25;;
17141;SDS011;32805;53.556;9.944;2022-08-25T07:18:41;13.73;;;10.10;;
17141;SDS011;32805;53.556;9.944;2022-08-25T07:21:10;12.10;;;9.25;;
17141;SDS011;32805;53.556;9.944;2022-08-25T07:23:39;12.55;;;9.65;;
17141;SDS011;32805;53.556;9.944;2022-08-25T07:26:08;10.02;;;8.32;;
17141;SDS011;32805;53.556;9.944;2022-08-25T07:28:57;10.70;;;8.30;;
17141;SDS011;32805;53.556;9.944;2022-08-25T07:31:26;12.13;;;9.82;;
17141;SDS011;32805;53.556;9.944;2022-08-25T07:33:55;9.55;;;8.63;;
17141;SDS011;32805;53.556;9.944;2022-08-25T07:36:41;9.05;;;7.68;;
17141;SDS011;32805;53.556;9.944;2022-08-25T07:39:11;10.85;;;8.43;;
17141;SDS011;32805;53.556;9.944;2022-08-25T07:41:40;9.75;;;7.72;;
17141;SDS011;32805;53.556;9.944;2022-08-25T07:44:08;10.05;;;9.02;;
17141;SDS011;32805;53.556;9.944;2022-08-25T07:46:38;11.45;;;9.45;;
17141;SDS011;32805;53.556;9.944;2022-08-25T07:49:07;11.05;;;9.70;;
17141;SDS011;32805;53.556;9.944;2022-08-25T07:51:42;13.60;;;8.60;;
17141;SDS011;32805;53.556;9.944;2022-08-25T07:54:32;10.05;;;7.88;;
17141;SDS011;32805;53.556;9.944;2022-08-25T07:57:04;12.65;;;9.57;;
17141;SDS011;32805;53.556;9.944;2022-08-25T07:59:33;11.13;;;9.93;;
17141;SDS011;32805;53.556;9.944;2022-08-25T08:02:06;9.82;;;8.85;;
17141;SDS011;32805;53.556;9.944;2022-08-25T08:04:44;11.80;;;9.65;;
17141;SDS011;32805;53.556;9.944;2022-08-25T08:07:15;10.82;;;8.13;;
17141;SDS011;32805;53.556;9.944;2022-08-25T08:09:45;10.00;;;8.55;;
17141;SDS011;32805;53.556;9.944;2022-08-25T08:12:25;10.10;;;9.10;;
17141;SDS011;32805;53.556;9.944;2022-08-25T08:14:53;11.02;;;8.63;;
17141;SDS011;32805;53.556;9.944;2022-08-25T08:17:21;9.38;;;8.40;;
17141;SDS011;32805;53.556;9.944;2022-08-25T08:19:49;9.07;;;7.93;;
17141;SDS011;32805;53.556;9.944;2022-08-25T08:22:19;9.52;;;7.80;;
17141;SDS011;32805;53.556;9.944;2022-08-25T08:24:48;10.75;;;7.75;;
17141;SDS011;32805;53.556;9.944;2022-08-25T08:27:21;9.90;;;8.43;;
17141;SDS011;32805;53.556;9.944;2022-08-25T08:29:50;11.57;;;8.85;;
17141;SDS011;32805;53.556;9.944;2022-08-25T08:32:19;8.98;;;7.90;;
17141;SDS011;32805;53.556;9.944;2022-08-25T08:34:56;13.50;;;9.70;;
17141;SDS011;32805;53.556;9.944;2022-08-25T08:37:24;9.93;;;9.02;;
17141;SDS011;32805;53.556;9.944;2022-08-25T08:39:54;13.07;;;9.85;;
17141;SDS011;32805;53.556;9.944;2022-08-25T08:42:27;11.45;;;8.60;;
17141;SDS011;32805;53.556;9.944;2022-08-25T08:45:17;11.70;;;9.48;;
17141;SDS011;32805;53.556;9.944;2022-08-25T08:47:57;10.65;;;9.55;;
17141;SDS011;32805;53.556;9.944;2022-08-25T08:50:38;10.52;;;7.93;;
17141;SDS011;32805;53.556;9.944;2022-08-25T08:53:18;9.48;;;7.53;;
17141;SDS011;32805;53.556;9.944;2022-08-25T08:55:53;9.00;;;7.47;;
17141;SDS011;32805;53.556;9.944;2022-08-25T08:58:23;8.60;;;7.80;;
17141;SDS011;32805;53.556;9.944;2022-08-25T09:00:56;10.55;;;7.20;;
17141;SDS011;32805;53.556;9.944;2022-08-25T09:03:28;8.57;;;7.43;;
17141;SDS011;32805;53.556;9.944;2022-08-25T09:06:05;9.10;;;7.60;;
17141;SDS011;32805;53.556;9.944;2022-08-25T09:08:37;8.35;;;7.20;;
17141;SDS011;32805;53.556;9.944;2022-08-25T09:11:13;8.43;;;7.10;;
17141;SDS011;32805;53.556;9.944;2022-08-25T09:16:46;8.23;;;7.03;;
17141;SDS011;32805;53.556;9.944;2022-08-25T09:19:28;7.45;;;6.75;;
17141;SDS011;32805;53.556;9.944;2022-08-25T09:22:10;8.23;;;7.20;;
17141;SDS011;32805;53.556;9.944;2022-08-25T09:25:04;8.98;;;8.05;;
17141;SDS011;32805;53.556;9.944;2022-08-25T09:27:41;9.25;;;7.88;;
17141;SDS011;32805;53.556;9.944;2022-08-25T09:30:17;10.00;;;6.70;;
17141;SDS011;32805;53.556;9.944;2022-08-25T09:32:50;8.23;;;7.38;;
17141;SDS011;32805;53.556;9.944;2022-08-25T09:35:27;7.47;;;6.78;;
17141;SDS011;32805;53.556;9.944;2022-08-25T09:37:58;8.82;;;7.93;;
17141;SDS011;32805;53.556;9.944;2022-08-25T09:40:27;10.05;;;7.28;;
17141;SDS011;32805;53.556;9.944;2022-08-25T09:43:00;9.93;;;8.27;;
17141;SDS011;32805;53.556;9.944;2022-08-25T09:45:33;9.63;;;8.80;;
17141;SDS011;32805;53.556;9.944;2022-08-25T09:48:22;10.77;;;8.68;;
17141;SDS011;32805;53.556;9.944;2022-08-25T09:50:56;9.98;;;8.98;;
17141;SDS011;32805;53.556;9.944;2022-08-25T09:53:28;9.73;;;8.15;;
17141;SDS011;32805;53.556;9.944;2022-08-25T09:56:00;11.00;;;9.25;;
17141;SDS011;32805;53.556;9.944;2022-08-25T09:58:34;11.73;;;9.93;;
17141;SDS011;32805;53.556;9.944;2022-08-25T10:01:10;10.80;;;8.82;;
17141;SDS011;32805;53.556;9.944;2022-08-25T10:03:57;10.13;;;8.80;;
17141;SDS011;32805;53.556;9.944;2022-08-25T10:06:28;10.20;;;7.82;;
17141;SDS011;32805;53.556;9.944;2022-08-25T10:09:00;10.02;;;8.73;;
17141;SDS011;32805;53.556;9.944;2022-08-25T10:11:33;11.05;;;9.95;;
17141;SDS011;32805;53.556;9.944;2022-08-25T10:14:06;12.02;;;10.73;;
17141;SDS011;32805;53.556;9.944;2022-08-25T10:16:43;9.93;;;8.90;;
17141;SDS011;32805;53.556;9.944;2022-08-25T10:19:21;9.45;;;8.48;;
17141;SDS011;32805;53.556;9.944;2022-08-25T10:22:04;11.07;;;9.25;;
17141;SDS011;32805;53.556;9.944;2022-08-25T10:24:37;10.30;;;9.30;;
17141;SDS011;32805;53.556;9.944;2022-08-25T10:27:16;10.32;;;8.93;;
17141;SDS011;32805;53.556;9.944;2022-08-25T10:29:54;10.52;;;8.18;;
17141;SDS011;32805;53.556;9.944;2022-08-25T10:32:33;9.75;;;8.70;;
17141;SDS011;32805;53.556;9.944;2022-08-25T10:35:11;9.35;;;8.32;;
17141;SDS011;32805;53.556;9.944;2022-08-25T10:37:43;10.48;;;9.38;;
17141;SDS011;32805;53.556;9.944;2022-08-25T10:40:20;9.68;;;8.18;;
17141;SDS011;32805;53.556;9.944;2022-08-25T10:42:56;9.45;;;8.55;;
17141;SDS011;32805;53.556;9.944;2022-08-25T10:45:37;10.35;;;9.35;;
17141;SDS011;32805;53.556;9.944;2022-08-25T10:51:11;9.20;;;7.95;;
17141;SDS011;32805;53.556;9.944;2022-08-25T10:53:52;9.25;;;8.35;;
17141;SDS011;32805;53.556;9.944;2022-08-25T10:56:23;8.70;;;7.80;;
17141;SDS011;32805;53.556;9.944;2022-08-25T10:59:03;10.32;;;8.00;;
17141;SDS011;32805;53.556;9.944;2022-08-25T11:02:07;9.18;;;7.82;;
17141;SDS011;32805;53.556;9.944;2022-08-25T11:04:51;8.77;;;7.82;;
17141;SDS011;32805;53.556;9.944;2022-08-25T11:07:26;7.88;;;7.18;;
17141;SDS011;32805;53.556;9.944;2022-08-25T11:09:58;8.98;;;8.05;;
17141;SDS011;32805;53.556;9.944;2022-08-25T11:12:32;8.55;;;7.78;;
17141;SDS011;32805;53.556;9.944;2022-08-25T11:15:06;8.93;;;7.95;;
17141;SDS011;32805;53.556;9.944;2022-08-25T11:17:39;8.35;;;6.80;;
17141;SDS011;32805;53.556;9.944;2022-08-25T11:20:16;11.75;;;7.45;;
17141;SDS011;32805;53.556;9.944;2022-08-25T11:23:05;9.73;;;6.90;;
17141;SDS011;32805;53.556;9.944;2022-08-25T11:25:39;7.78;;;7.03;;
17141;SDS011;32805;53.556;9.944;2022-08-25T11:28:10;8.15;;;6.30;;
17141;SDS011;32805;53.556;9.944;2022-08-25T11:30:41;7.25;;;6.55;;
17141;SDS011;32805;53.556;9.944;2022-08-25T11:33:13;8.05;;;6.05;;
17141;SDS011;32805;53.556;9.944;2022-08-25T11:35:46;7.90;;;6.28;;
17141;SDS011;32805;53.556;9.944;2022-08-25T11:38:21;7.45;;;5.60;;
17141;SDS011;32805;53.556;9.944;2022-08-25T11:41:04;7.82;;;5.55;;
17141;SDS011;32805;53.556;9.944;2022-08-25T11:43:53;5.65;;;4.78;;
17141;SDS011;32805;53.556;9.944;2022-08-25T11:46:39;6.43;;;4.80;;
17141;SDS011;32805;53.556;9.944;2022-08-25T11:49:23;6.50;;;4.10;;
17141;SDS011;32805;53.556;9.944;2022-08-25T11:52:20;5.00;;;4.18;;
17141;SDS011;32805;53.556;9.944;2022-08-25T11:55:09;5.57;;;4.30;;
17141;SDS011;32805;53.556;9.944;2022-08-25T11:57:39;6.15;;;4.47;;
17141;SDS011;32805;53.556;9.944;2022-08-25T12:00:10;6.03;;;4.10;;
17141;SDS011;32805;53.556;9.944;2022-08-25T12:02:41;7.50;;;5.05;;
17141;SDS011;32805;53.556;9.944;2022-08-25T12:08:49;6.93;;;4.15;;
17141;SDS011;32805;53.556;9.944;2022-08-25T12:11:43;5.22;;;4.30;;
17141;SDS011;32805;53.556;9.944;2022-08-25T12:14:14;7.90;;;4.07;;
17141;SDS011;32805;53.556;9.944;2022-08-25T12:16:58;4.75;;;4.20;;
17141;SDS011;32805;53.556;9.944;2022-08-25T12:19:46;6.18;;;5.07;;
17141;SDS011;32805;53.556;9.944;2022-08-25T12:25:11;7.13;;;4.45;;
17141;SDS011;32805;53.556;9.944;2022-08-25T12:27:47;6.30;;;4.90;;
17141;SDS011;32805;53.556;9.944;2022-08-25T12:30:26;7.53;;;4.78;;
17141;SDS011;32805;53.556;9.944;2022-08-25T12:33:04;5.00;;;4.38;;
17141;SDS011;32805;53.556;9.944;2022-08-25T12:35:38;7.10;;;4.28;;
17141;SDS011;32805;53.556;9.944;2022-08-25T12:38:26;6.60;;;4.43;;
17141;SDS011;32805;53.556;9.944;2022-08-25T12:40:59;7.47;;;4.60;;
17141;SDS011;32805;53.556;9.944;2022-08-25T12:43:31;7.80;;;4.47;;
17141;SDS011;32805;53.556;9.944;2022-08-25T12:49:02;6.82;;;4.40;;
17141;SDS011;32805;53.556;9.944;2022-08-25T12:51:52;5.45;;;4.50;;
17141;SDS011;32805;53.556;9.944;2022-08-25T12:54:30;5.93;;;3.78;;
17141;SDS011;32805;53.556;9.944;2022-08-25T12:57:32;7.32;;;4.38;;
17141;SDS011;32805;53.556;9.944;2022-08-25T13:00:10;4.38;;;3.72;;
17141;SDS011;32805;53.556;9.944;2022-08-25T13:08:34;7.40;;;3.67;;
17141;SDS011;32805;53.556;9.944;2022-08-25T13:11:27;5.53;;;4.18;;
17141;SDS011;32805;53.556;9.944;2022-08-25T13:14:03;5.28;;;4.05;;
17141;SDS011;32805;53.556;9.944;2022-08-25T13:16:35;7.10;;;3.63;;
17141;SDS011;32805;53.556;9.944;2022-08-25T13:19:04;5.68;;;3.70;;
17141;SDS011;32805;53.556;9.944;2022-08-25T13:21:35;5.03;;;3.90;;
17141;SDS011;32805;53.556;9.944;2022-08-25T13:24:05;4.55;;;4.00;;
17141;SDS011;32805;53.556;9.944;2022-08-25T13:26:38;5.90;;;3.83;;
17141;SDS011;32805;53.556;9.944;2022-08-25T13:29:18;3.85;;;3.50;;
17141;SDS011;32805;53.556;9.944;2022-08-25T13:31:52;5.40;;;3.50;;
17141;SDS011;32805;53.556;9.944;2022-08-25T13:34:26;5.22;;;4.32;;
17141;SDS011;32805;53.556;9.944;2022-08-25T13:37:06;5.78;;;4.60;;
17141;SDS011;32805;53.556;9.944;2022-08-25T13:40:07;10.23;;;7.00;;
17141;SDS011;32805;53.556;9.944;2022-08-25T13:42:37;5.18;;;3.95;;
17141;SDS011;32805;53.556;9.944;2022-08-25T13:45:11;5.60;;;4.72;;
17141;SDS011;32805;53.556;9.944;2022-08-25T13:47:42;5.82;;;3.53;;
17141;SDS011;32805;53.556;9.944;2022-08-25T13:50:14;6.07;;;3.90;;
17141;SDS011;32805;53.556;9.944;2022-08-25T13:52:49;5.43;;;4.18;;
17141;SDS011;32805;53.556;9.944;2022-08-25T13:55:21;3.95;;;3.30;;
17141;SDS011;32805;53.556;9.944;2022-08-25T13:57:55;4.30;;;3.78;;
17141;SDS011;32805;53.556;9.944;2022-08-25T14:00:27;5.15;;;3.80;;
17141;SDS011;32805;53.556;9.944;2022-08-25T14:02:58;7.68;;;4.57;;
17141;SDS011;32805;53.556;9.944;2022-08-25T14:05:39;5.65;;;4.45;;
17141;SDS011;32805;53.556;9.944;2022-08-25T14:11:01;8.95;;;4.40;;
17141;SDS011;32805;53.556;9.944;2022-08-25T14:13:41;6.65;;;4.13;;
17141;SDS011;32805;53.556;9.944;2022-08-25T14:16:12;8.02;;;4.45;;
17141;SDS011;32805;53.556;9.944;2022-08-25T14:18:46;7.40;;;4.65;;
17141;SDS011;32805;53.556;9.944;2022-08-25T14:21:16;5.43;;;3.97;;
17141;SDS011;32805;53.556;9.944;2022-08-25T14:23:46;5.13;;;4.30;;
17141;SDS011;32805;53.556;9.944;2022-08-25T14:26:15;5.35;;;4.00;;
17141;SDS011;32805;53.556;9.944;2022-08-25T14:28:45;4.10;;;3.65;;
17141;SDS011;32805;53.556;9.944;2022-08-25T14:31:17;5.35;;;3.65;;
17141;SDS011;32805;53.556;9.944;2022-08-25T14:33:55;5.70;;;4.28;;
17141;SDS011;32805;53.556;9.944;2022-08-25T14:36:27;7.18;;;5.03;;
17141;SDS011;32805;53.556;9.944;2022-08-25T14:38:57;4.20;;;3.80;;
17141;SDS011;32805;53.556;9.944;2022-08-25T14:41:26;4.70;;;4.10;;
17141;SDS011;32805;53.556;9.944;2022-08-25T14:43:56;6.15;;;3.83;;
17141;SDS011;32805;53.556;9.944;2022-08-25T14:46:27;4.88;;;4.28;;
17141;SDS011;32805;53.556;9.944;2022-08-25T14:48:58;6.15;;;4.50;;
17141;SDS011;32805;53.556;9.944;2022-08-25T14:51:28;6.38;;;3.88;;
17141;SDS011;32805;53.556;9.944;2022-08-25T14:53:58;6.00;;;4.28;;
17141;SDS011;32805;53.556;9.944;2022-08-25T14:56:34;6.20;;;4.32;;
17141;SDS011;32805;53.556;9.944;2022-08-25T14:59:08;4.78;;;3.90;;
17141;SDS011;32805;53.556;9.944;2022-08-25T15:01:38;5.22;;;4.13;;
17141;SDS011;32805;53.556;9.944;2022-08-25T15:04:07;6.57;;;4.38;;
17141;SDS011;32805;53.556;9.944;2022-08-25T15:06:41;6.68;;;4.78;;
17141;SDS011;32805;53.556;9.944;2022-08-25T15:09:11;7.80;;;3.92;;
17141;SDS011;32805;53.556;9.944;2022-08-25T15:11:42;4.78;;;4.38;;
17141;SDS011;32805;53.556;9.944;2022-08-25T15:14:13;4.63;;;3.60;;
17141;SDS011;32805;53.556;9.944;2022-08-25T15:16:55;4.65;;;3.83;;
17141;SDS011;32805;53.556;9.944;2022-08-25T15:19:24;4.68;;;3.95;;
17141;SDS011;32805;53.556;9.944;2022-08-25T15:21:53;4.95;;;4.25;;
17141;SDS011;32805;53.556;9.944;2022-08-25T15:24:24;6.93;;;4.50;;
17141;SDS011;32805;53.556;9.944;2022-08-25T15:26:54;8.90;;;5.18;;
17141;SDS011;32805;53.556;9.944;2022-08-25T15:29:25;5.75;;;4.18;;
17141;SDS011;32805;53.556;9.944;2022-08-25T15:31:57;5.13;;;4.10;;
17141;SDS011;32805;53.556;9.944;2022-08-25T15:34:25;4.90;;;4.30;;
17141;SDS011;32805;53.556;9.944;2022-08-25T15:36:54;4.80;;;4.10;;
17141;SDS011;32805;53.556;9.944;2022-08-25T15:39:24;5.70;;;3.78;;
17141;SDS011;32805;53.556;9.944;2022-08-25T15:41:52;11.27;;;6.05;;